Terminal Aerodrome Forecast
Issued by NWS

Home | Current Version | Previous Version | Graphics & Text | Print | Product List | Glossary On
Versions: 1 2 3 4 5 6 7 8 9 10 11 12 13 14 15 16 17 18 19 20
000
FTUS43 KMPX 241100
TAFAXN
TAF
KAXN 241124Z 2412/2512 34007KT P6SM OVC005
     FM242000 27006KT P6SM SCT007 OVC012
     FM250500 20007KT P6SM SCT015 OVC070
     FM251000 22005KT P6SM OVC015=

USA.gov is the U.S. government's official web portal to all federal, state and local government web resources and services.